Terminal Aerodrome Forecast
Issued by NWS Charleston, WV

Current Version | Previous Version | Graphics & Text | Print | Product List | Glossary On
Versions: 1 2 3 4 5 6 7 8 9 10 11 12 13 14 15 16 17 18 19 20 21 22 23
000
FTUS41 KRLX 231754
TAFCRW
TAF
KCRW 231754Z 2318/2418 21010G22KT P6SM -SHRA VCTS BKN025 OVC035CB
     FM240100 21009KT 4SM SHRA BKN015 OVC025
      TEMPO 2401/2403 2SM TSRA OVC010CB
     FM240300 21005KT 2SM SHRA BR VCTS OVC008CB
     FM240500 24005KT 3SM SHRA BR OVC007
     FM240800 26005KT P6SM -SHRA OVC008
     FM241100 27004KT P6SM BKN015
     FM241600 27007KT P6SM BKN040=

USA.gov is the U.S. government's official web portal to all federal, state and local government web resources and services.